Weather reports worldwide

Advertisment
Wisley, United Kingdom (99080): temperature & dewpoint: 17.10.2020 07:00:00 - 23.10.2020 07:00:00 (BST)Wisley, United Kingdom (99080): temperature -20cm: 17.10.2020 07:00:00 - 23.10.2020 07:00:00 (BST)Wisley, United Kingdom (99080): wind speed: 17.10.2020 07:00:00 - 23.10.2020 07:00:00 (BST)Wisley, United Kingdom (99080): wind direction: 17.10.2020 07:00:00 - 23.10.2020 07:00:00 (BST)Wisley, United Kingdom (99080): precipitation: 17.10.2020 07:00:00 - 23.10.2020 07:00:00 (BST)
Date & Time tt [°C] td [°C] tt -20cm [°C] ff [km/h] ff [kn] dd rr [mm]
23.10.2020 07:00:00 - - - - - - -
23.10.2020 06:00:00 12,4 12,4 - 13 7 S 0,0
23.10.2020 05:00:00 11,9 11,8 - 9 5 S 0,0
23.10.2020 04:00:00 9,8 9,8 - 5 3 S 0,0
23.10.2020 03:00:00 10,4 10,4 - 4 2 SSE 0,0
23.10.2020 02:00:00 10,8 10,8 - 5 3 SW 0,0
23.10.2020 01:00:00 8,2 8,1 - 4 2 S 0,0
23.10.2020 00:00:00 9,3 9,2 - 4 2 SSW 0,0
22.10.2020 23:00:00 8,8 8,4 - 2 1 SW 0,0
22.10.2020 22:00:00 9,7 9,1 - 4 2 W 0,2
22.10.2020 21:00:00 10,7 9,9 - 5 3 SSW 0,0
22.10.2020 20:00:00 11,2 10,2 - 8 4 SSW 0,0
22.10.2020 19:00:00 11,2 10,0 - 5 3 S 0,0
22.10.2020 18:00:00 12,1 9,9 - 4 2 WSW 0,0
22.10.2020 17:00:00 13,5 11,0 - 5 3 W 0,0
22.10.2020 16:00:00 14,4 11,1 - 5 3 W 0,0
22.10.2020 15:00:00 13,7 10,7 - 9 5 W 0,4
22.10.2020 14:00:00 16,5 10,2 - 15 8 SW 0,0
22.10.2020 13:00:00 16,6 10,8 - 13 7 SW 0,0
22.10.2020 12:00:00 14,8 10,1 - 13 7 WSW 0,0
22.10.2020 11:00:00 14,2 11,2 - 13 7 WSW 0,0
22.10.2020 10:00:00 13,8 11,0 12,9 15 8 SSW 0,0
22.10.2020 09:00:00 12,8 10,6 - 11 6 SW 0,0
22.10.2020 08:00:00 11,6 10,2 - 9 5 SW 0,0
22.10.2020 07:00:00 11,4 10,2 - 11 6 S 0,0
22.10.2020 06:00:00 12,0 10,4 - 9 5 SSW 0,0
22.10.2020 05:00:00 12,0 10,4 - 11 6 SSW 0,0
22.10.2020 04:00:00 11,7 10,0 - 11 6 SW 0,0
22.10.2020 03:00:00 12,0 10,1 - 11 6 SW 0,0
22.10.2020 02:00:00 12,7 10,5 - 15 8 SSW 0,0
22.10.2020 01:00:00 13,2 10,9 - 13 7 SSW 0,0
22.10.2020 00:00:00 12,4 10,5 - 11 6 S 0,0
21.10.2020 23:00:00 12,7 10,3 - 13 7 SSW 0,0
21.10.2020 22:00:00 14,2 12,1 - 18 10 SW 0,0
21.10.2020 21:00:00 13,5 12,6 - 9 5 SSW 0,0
21.10.2020 20:00:00 13,6 12,3 - 9 5 SSW 0,0
21.10.2020 19:00:00 13,6 12,7 - 8 4 SSW 0,0
21.10.2020 18:00:00 14,2 13,1 - 9 5 SW 0,0
21.10.2020 17:00:00 14,5 13,6 - 9 5 SW 0,0
21.10.2020 16:00:00 14,4 13,3 - 16 9 W 0,4
21.10.2020 15:00:00 15,6 15,2 - 9 5 SW 1,4
21.10.2020 14:00:00 15,9 15,7 - 9 5 SSW 0,0
21.10.2020 13:00:00 15,0 14,8 - 9 5 SW 1,0
21.10.2020 12:00:00 14,5 14,4 - 2 1 NW 1,8
21.10.2020 11:00:00 14,2 14,1 - 2 1 NE 2,8
21.10.2020 10:00:00 14,0 13,8 12,9 2 1 E 1,4
21.10.2020 09:00:00 13,9 13,7 - 4 2 E 1,6
21.10.2020 08:00:00 13,9 13,7 - 5 3 E 0,8
21.10.2020 07:00:00 14,1 13,8 - 8 4 E 1,0
21.10.2020 06:00:00 14,3 13,9 - 5 3 ENE 0,8
21.10.2020 05:00:00 14,5 13,9 - 4 2 ESE 0,2
21.10.2020 04:00:00 14,8 13,9 - 8 4 SE 0,0
21.10.2020 03:00:00 15,2 13,6 - 9 5 SSE 0,0
21.10.2020 02:00:00 15,2 13,4 - 11 6 SSE 0,0
21.10.2020 01:00:00 15,1 13,2 - 11 6 SSE 0,0
21.10.2020 00:00:00 15,4 13,1 - 16 9 S 0,0
20.10.2020 23:00:00 15,4 13,1 - 13 7 SSE 0,0
20.10.2020 22:00:00 15,2 12,9 - 13 7 S 0,0
20.10.2020 21:00:00 15,4 13,0 - 13 7 S 0,0
20.10.2020 20:00:00 15,0 13,3 - 15 8 S 0,0
20.10.2020 19:00:00 14,6 12,9 - 13 7 S 0,0
20.10.2020 18:00:00 15,2 12,7 - 11 6 S 0,0
20.10.2020 17:00:00 16,5 12,5 - 15 8 S 0,0
20.10.2020 16:00:00 16,9 12,5 - 16 9 S 0,0
20.10.2020 15:00:00 17,4 12,4 - 16 9 SSW 0,0
20.10.2020 14:00:00 17,2 12,9 - 16 9 SSW 0,0
20.10.2020 13:00:00 17,2 12,7 - 18 10 SSW 0,0
20.10.2020 12:00:00 17,5 13,6 - 16 9 SSW 0,0
20.10.2020 11:00:00 16,6 13,3 - 11 6 SSW 0,0
20.10.2020 10:00:00 15,4 13,2 12,0 15 8 SSW 0,0
20.10.2020 09:00:00 14,5 12,7 - 13 7 S 0,0
20.10.2020 08:00:00 13,7 12,3 - 11 6 S 0,0
20.10.2020 07:00:00 13,3 12,4 - 9 5 SSW 0,0
20.10.2020 06:00:00 12,9 12,4 - 15 8 S 0,4
20.10.2020 05:00:00 12,6 11,8 - 13 7 S 0,8
20.10.2020 04:00:00 12,3 10,7 - 11 6 SSE 0,0
20.10.2020 03:00:00 13,1 9,2 - 16 9 SSE 0,0
20.10.2020 02:00:00 12,4 8,7 - 18 10 SSE 0,0
20.10.2020 01:00:00 12,2 8,1 - 15 8 SSE 0,0
20.10.2020 00:00:00 12,0 7,5 - 16 9 SSE 0,0
19.10.2020 23:00:00 12,1 6,9 - 15 8 SSE 0,0
19.10.2020 22:00:00 12,3 6,7 - 15 8 SSE 0,0
19.10.2020 21:00:00 12,2 6,6 - 11 6 SE 0,0
19.10.2020 20:00:00 12,0 6,5 - 13 7 SE 0,0
19.10.2020 19:00:00 12,1 6,7 - 15 8 SSE 0,0
19.10.2020 18:00:00 12,5 6,6 - 16 9 SSE 0,0
19.10.2020 17:00:00 12,8 6,6 - 16 9 SSE 0,0
19.10.2020 16:00:00 13,7 6,3 - 18 10 SSE 0,0
19.10.2020 15:00:00 14,6 6,5 - 18 10 S 0,0
19.10.2020 14:00:00 14,5 6,2 - 21 11 S 0,0
19.10.2020 13:00:00 14,9 6,7 - 22 12 SSE 0,0
19.10.2020 12:00:00 14,3 8,0 - 16 9 S 0,0
19.10.2020 11:00:00 13,5 9,1 - 13 7 S 0,0
19.10.2020 10:00:00 12,4 9,3 11,5 9 5 SSE 0,0
19.10.2020 09:00:00 9,8 8,4 - 8 4 SE 0,0
19.10.2020 08:00:00 9,2 8,2 - 9 5 SE 0,0
19.10.2020 07:00:00 7,8 7,7 - 9 5 SE 0,0
19.10.2020 06:00:00 6,2 6,0 - 8 4 SE 0,0
19.10.2020 05:00:00 6,3 5,9 - 4 2 SE 0,0
19.10.2020 04:00:00 8,1 7,8 - 2 1 SE 0,0
19.10.2020 03:00:00 8,5 8,3 - 2 1 ESE 0,0
19.10.2020 02:00:00 8,4 8,2 - 2 1 SE 0,0
19.10.2020 01:00:00 8,7 8,4 - 2 1 S 0,0
19.10.2020 00:00:00 8,7 8,4 - 2 1 SSW 0,0
18.10.2020 23:00:00 8,8 8,5 - 4 2 SE 0,0
18.10.2020 22:00:00 9,1 8,7 - 2 1 SE 0,0
18.10.2020 21:00:00 9,3 8,7 - 2 1 SSE 0,0
18.10.2020 20:00:00 9,7 8,7 - 4 2 SSE 0,0
18.10.2020 19:00:00 10,0 8,5 - 4 2 SE 0,0
18.10.2020 18:00:00 10,8 8,2 - 2 1 SE 0,0
18.10.2020 17:00:00 12,1 7,3 - 0 0 N 0,0
18.10.2020 16:00:00 12,5 7,3 - 2 1 N 0,0
18.10.2020 15:00:00 11,9 8,3 - 2 1 NW 0,0
18.10.2020 14:00:00 11,5 9,1 - 4 2 S 0,0
18.10.2020 13:00:00 10,6 9,5 - 2 1 SW 0,0
18.10.2020 12:00:00 9,6 9,6 - 4 2 W 0,0
18.10.2020 11:00:00 8,1 8,1 - 2 1 SW 0,0
18.10.2020 10:00:00 6,9 6,9 11,2 2 1 SSW 0,0
18.10.2020 09:00:00 5,1 5,1 - 4 2 SSW 0,0
18.10.2020 08:00:00 2,0 1,9 - 2 1 SW 0,0
18.10.2020 07:00:00 1,8 1,6 - 2 1 SE 0,0
18.10.2020 06:00:00 2,6 2,5 - 4 2 SE 0,0
18.10.2020 05:00:00 2,8 2,5 - 4 2 S 0,0
18.10.2020 04:00:00 3,5 3,1 - 2 1 S 0,0
18.10.2020 03:00:00 4,9 4,3 - 0 0 N 0,0
18.10.2020 02:00:00 6,7 6,0 - 0 0 N 0,0
18.10.2020 01:00:00 7,6 7,1 - 2 1 W 0,0
18.10.2020 00:00:00 7,6 7,2 - 4 2 W 0,0
17.10.2020 23:00:00 7,4 7,0 - 2 1 WNW 0,0
17.10.2020 22:00:00 7,3 6,1 - 0 0 N 0,0
17.10.2020 21:00:00 9,0 7,4 - 4 2 SSW 0,0
17.10.2020 20:00:00 9,5 7,3 - 2 1 N 0,0
17.10.2020 19:00:00 9,9 7,4 - 2 1 N 0,0
17.10.2020 18:00:00 10,8 7,0 - 4 2 NNE 0,0
17.10.2020 17:00:00 11,7 7,6 - 4 2 NW 0,0
17.10.2020 16:00:00 11,9 7,1 - 8 4 NNW 0,0
17.10.2020 15:00:00 12,3 7,4 - 5 3 N 0,0
17.10.2020 14:00:00 12,7 7,3 - 5 3 N 0,0
17.10.2020 13:00:00 11,7 7,4 - 5 3 NE 0,0
17.10.2020 12:00:00 11,2 7,8 - 5 3 NNE 0,0
17.10.2020 11:00:00 10,7 7,8 - 8 4 NNE 0,0
17.10.2020 10:00:00 10,1 8,0 11,5 4 2 NE 0,0
17.10.2020 09:00:00 9,6 8,3 - 4 2 N 0,0
17.10.2020 08:00:00 9,2 8,2 - 2 1 N 0,0
17.10.2020 07:00:00 9,6 8,4 - 4 2 NNE 0,0

tt = temperature
td = dewpoint
tt -20cm = temperature -20cm
ff = wind speed
dd = wind direction
rr = precipitation

Next stations